sensor_id;sensor_type;location;lat;lon;timestamp;pressure;altitude;pressure_sealevel;temperature;humidity
77112;BME280;66064;50.226;14.344;2023-05-02T00:00:46;99305.22;;;13.11;69.17
77112;BME280;66064;50.226;14.344;2023-05-02T00:03:15;99301.63;;;13.12;68.79
77112;BME280;66064;50.226;14.344;2023-05-02T00:05:43;99300.75;;;13.13;69.19
77112;BME280;66064;50.226;14.344;2023-05-02T00:08:10;99298.97;;;13.12;68.64
77112;BME280;66064;50.226;14.344;2023-05-02T00:10:36;99301.63;;;13.12;68.90
77112;BME280;66064;50.226;14.344;2023-05-02T00:13:03;99301.66;;;13.08;68.91
77112;BME280;66064;50.226;14.344;2023-05-02T00:15:29;99298.09;;;13.01;69.44
77112;BME280;66064;50.226;14.344;2023-05-02T00:17:55;99295.41;;;13.04;69.32
77112;BME280;66064;50.226;14.344;2023-05-02T00:20:21;99307.91;;;13.02;70.33
77112;BME280;66064;50.226;14.344;2023-05-02T00:22:48;99313.25;;;12.99;69.87
77112;BME280;66064;50.226;14.344;2023-05-02T00:25:14;99310.59;;;12.98;69.89
77112;BME280;66064;50.226;14.344;2023-05-02T00:27:43;99312.38;;;12.97;69.82
77112;BME280;66064;50.226;14.344;2023-05-02T00:30:12;99311.50;;;12.89;70.05
77112;BME280;66064;50.226;14.344;2023-05-02T00:32:39;99307.94;;;12.87;70.69
77112;BME280;66064;50.226;14.344;2023-05-02T00:35:05;99315.97;;;12.85;70.52
77112;BME280;66064;50.226;14.344;2023-05-02T00:37:32;99308.00;;;12.72;71.04
77112;BME280;66064;50.226;14.344;2023-05-02T00:39:58;99312.47;;;12.62;70.43
77112;BME280;66064;50.226;14.344;2023-05-02T00:42:24;99313.38;;;12.59;70.83
77112;BME280;66064;50.226;14.344;2023-05-02T00:44:50;99315.16;;;12.39;71.62
77112;BME280;66064;50.226;14.344;2023-05-02T00:47:17;99306.28;;;12.19;72.46
77112;BME280;66064;50.226;14.344;2023-05-02T00:49:43;99318.75;;;12.14;73.16
77112;BME280;66064;50.226;14.344;2023-05-02T00:52:10;99318.75;;;11.99;73.50
77112;BME280;66064;50.226;14.344;2023-05-02T00:54:38;99318.75;;;11.97;73.50
77112;BME280;66064;50.226;14.344;2023-05-02T00:57:05;99323.16;;;11.81;74.16
77112;BME280;66064;50.226;14.344;2023-05-02T00:59:33;99333.81;;;11.78;74.49
77112;BME280;66064;50.226;14.344;2023-05-02T01:02:16;99334.66;;;11.71;74.61
77112;BME280;66064;50.226;14.344;2023-05-02T01:05:37;99330.16;;;11.53;75.53
77112;BME280;66064;50.226;14.344;2023-05-02T01:11:13;99339.84;;;11.27;76.77
77112;BME280;66064;50.226;14.344;2023-05-02T01:13:41;99331.81;;;11.15;77.21
77112;BME280;66064;50.226;14.344;2023-05-02T01:16:11;99339.78;;;11.10;77.27
77112;BME280;66064;50.226;14.344;2023-05-02T01:18:40;99335.31;;;10.99;77.51
77112;BME280;66064;50.226;14.344;2023-05-02T01:21:08;99335.31;;;10.99;77.89
77112;BME280;66064;50.226;14.344;2023-05-02T01:23:59;99340.56;;;10.86;77.97
77112;BME280;66064;50.226;14.344;2023-05-02T01:29:44;99335.16;;;10.71;78.50
77112;BME280;66064;50.226;14.344;2023-05-02T01:32:14;99358.22;;;10.71;79.37
77112;BME280;66064;50.226;14.344;2023-05-02T01:34:42;99339.50;;;10.62;79.21
77112;BME280;66064;50.226;14.344;2023-05-02T01:37:11;99342.13;;;10.57;79.38
77112;BME280;66064;50.226;14.344;2023-05-02T01:39:38;99359.00;;;10.61;80.26
77112;BME280;66064;50.226;14.344;2023-05-02T01:42:05;99358.09;;;10.52;80.07
77112;BME280;66064;50.226;14.344;2023-05-02T01:44:33;99364.19;;;10.42;80.75
77112;BME280;66064;50.226;14.344;2023-05-02T01:47:03;99367.69;;;10.32;80.95
77112;BME280;66064;50.226;14.344;2023-05-02T01:49:33;99371.16;;;10.22;81.40
77112;BME280;66064;50.226;14.344;2023-05-02T01:52:04;99374.63;;;10.18;81.97
77112;BME280;66064;50.226;14.344;2023-05-02T01:54:34;99371.91;;;10.12;82.49
77112;BME280;66064;50.226;14.344;2023-05-02T01:57:04;99372.84;;;10.17;82.78
77112;BME280;66064;50.226;14.344;2023-05-02T01:59:34;99370.22;;;10.19;82.33
77112;BME280;66064;50.226;14.344;2023-05-02T02:02:02;99371.13;;;10.19;82.65
77112;BME280;66064;50.226;14.344;2023-05-02T02:04:30;99380.00;;;10.21;82.67
77112;BME280;66064;50.226;14.344;2023-05-02T02:07:02;99379.22;;;10.34;82.51
77112;BME280;66064;50.226;14.344;2023-05-02T02:09:29;99375.69;;;10.40;82.13
77112;BME280;66064;50.226;14.344;2023-05-02T02:12:05;99381.97;;;10.46;81.89
77112;BME280;66064;50.226;14.344;2023-05-02T02:14:37;99375.81;;;10.52;81.58
77112;BME280;66064;50.226;14.344;2023-05-02T02:17:15;99374.03;;;10.51;82.05
77112;BME280;66064;50.226;14.344;2023-05-02T02:19:47;99370.50;;;10.54;81.78
77112;BME280;66064;50.226;14.344;2023-05-02T02:22:18;99379.34;;;10.51;81.70
77112;BME280;66064;50.226;14.344;2023-05-02T02:24:52;99378.41;;;10.44;82.31
77112;BME280;66064;50.226;14.344;2023-05-02T02:27:19;99383.69;;;10.38;83.00
77112;BME280;66064;50.226;14.344;2023-05-02T02:29:46;99376.59;;;10.37;82.58
77112;BME280;66064;50.226;14.344;2023-05-02T02:32:12;99381.81;;;10.28;82.85
77112;BME280;66064;50.226;14.344;2023-05-02T02:34:39;99388.06;;;10.32;82.91
77112;BME280;66064;50.226;14.344;2023-05-02T02:37:14;99381.69;;;10.16;83.96
77112;BME280;66064;50.226;14.344;2023-05-02T02:45:26;99404.97;;;10.37;83.00
77112;BME280;66064;50.226;14.344;2023-05-02T02:50:58;99403.16;;;10.33;82.80
77112;BME280;66064;50.226;14.344;2023-05-02T02:53:32;99403.09;;;10.28;82.82
77112;BME280;66064;50.226;14.344;2023-05-02T02:56:05;99397.75;;;10.25;83.45
77112;BME280;66064;50.226;14.344;2023-05-02T03:01:35;99417.41;;;10.42;83.10
77112;BME280;66064;50.226;14.344;2023-05-02T03:04:06;99413.97;;;10.52;82.34
77112;BME280;66064;50.226;14.344;2023-05-02T03:06:35;99417.63;;;10.67;81.77
77112;BME280;66064;50.226;14.344;2023-05-02T03:09:01;99411.44;;;10.72;81.32
77112;BME280;66064;50.226;14.344;2023-05-02T03:11:28;99415.06;;;10.80;81.61
77112;BME280;66064;50.226;14.344;2023-05-02T03:13:55;99417.72;;;10.82;80.99
77112;BME280;66064;50.226;14.344;2023-05-02T03:16:37;99424.88;;;10.92;80.23
77112;BME280;66064;50.226;14.344;2023-05-02T03:19:05;99424.88;;;10.92;81.16
77112;BME280;66064;50.226;14.344;2023-05-02T03:21:31;99430.22;;;10.92;80.92
77112;BME280;66064;50.226;14.344;2023-05-02T03:24:01;99437.31;;;10.93;80.82
77112;BME280;66064;50.226;14.344;2023-05-02T03:26:30;99440.91;;;10.97;81.00
77112;BME280;66064;50.226;14.344;2023-05-02T03:28:56;99434.66;;;10.95;80.25
77112;BME280;66064;50.226;14.344;2023-05-02T03:31:22;99441.78;;;10.97;80.45
77112;BME280;66064;50.226;14.344;2023-05-02T03:33:48;99440.94;;;11.00;80.89
77112;BME280;66064;50.226;14.344;2023-05-02T03:36:16;99446.25;;;11.04;80.59
77112;BME280;66064;50.226;14.344;2023-05-02T03:38:43;99444.56;;;11.15;79.67
77112;BME280;66064;50.226;14.344;2023-05-02T03:41:10;99442.75;;;11.11;80.01
77112;BME280;66064;50.226;14.344;2023-05-02T03:43:37;99446.31;;;11.12;80.04
77112;BME280;66064;50.226;14.344;2023-05-02T03:46:05;99451.69;;;11.16;80.29
77112;BME280;66064;50.226;14.344;2023-05-02T03:48:33;99452.63;;;11.26;79.08
77112;BME280;66064;50.226;14.344;2023-05-02T03:51:01;99441.03;;;11.16;79.12
77112;BME280;66064;50.226;14.344;2023-05-02T03:53:28;99448.16;;;11.23;78.73
77112;BME280;66064;50.226;14.344;2023-05-02T03:55:55;99451.72;;;11.26;78.24
77112;BME280;66064;50.226;14.344;2023-05-02T03:58:24;99454.44;;;11.30;78.89
77112;BME280;66064;50.226;14.344;2023-05-02T04:00:52;99457.94;;;11.25;78.97
77112;BME280;66064;50.226;14.344;2023-05-02T04:03:19;99465.09;;;11.33;77.60
77112;BME280;66064;50.226;14.344;2023-05-02T04:05:46;99464.22;;;11.39;77.30
77112;BME280;66064;50.226;14.344;2023-05-02T04:08:12;99473.13;;;11.41;77.76
77112;BME280;66064;50.226;14.344;2023-05-02T04:10:38;99473.16;;;11.44;77.63
77112;BME280;66064;50.226;14.344;2023-05-02T04:13:04;99467.78;;;11.38;77.73
77112;BME280;66064;50.226;14.344;2023-05-02T04:15:31;99473.16;;;11.44;77.03
77112;BME280;66064;50.226;14.344;2023-05-02T04:17:57;99471.41;;;11.49;77.68
77112;BME280;66064;50.226;14.344;2023-05-02T04:20:24;99482.94;;;11.48;78.07
77112;BME280;66064;50.226;14.344;2023-05-02T04:22:49;99481.19;;;11.50;77.32
77112;BME280;66064;50.226;14.344;2023-05-02T04:25:16;99489.19;;;11.56;76.84
77112;BME280;66064;50.226;14.344;2023-05-02T04:27:42;99485.63;;;11.54;77.74
77112;BME280;66064;50.226;14.344;2023-05-02T04:30:08;99490.06;;;11.53;76.88
77112;BME280;66064;50.226;14.344;2023-05-02T04:32:37;99491.84;;;11.56;77.16
77112;BME280;66064;50.226;14.344;2023-05-02T04:35:04;99499.84;;;11.56;77.38
77112;BME280;66064;50.226;14.344;2023-05-02T04:37:30;99506.94;;;11.55;77.88
77112;BME280;66064;50.226;14.344;2023-05-02T04:39:56;99503.41;;;11.56;77.04
77112;BME280;66064;50.226;14.344;2023-05-02T04:42:22;99510.53;;;11.57;76.88
77112;BME280;66064;50.226;14.344;2023-05-02T04:44:49;99506.94;;;11.51;77.78
77112;BME280;66064;50.226;14.344;2023-05-02T04:47:15;99516.69;;;11.47;79.27
77112;BME280;66064;50.226;14.344;2023-05-02T04:49:42;99506.94;;;11.48;78.09
77112;BME280;66064;50.226;14.344;2023-05-02T04:52:08;99511.38;;;11.55;77.61
77112;BME280;66064;50.226;14.344;2023-05-02T04:54:35;99516.72;;;11.56;77.72
77112;BME280;66064;50.226;14.344;2023-05-02T04:57:01;99514.09;;;11.61;76.87
77112;BME280;66064;50.226;14.344;2023-05-02T04:59:28;99508.75;;;11.58;77.99
77112;BME280;66064;50.226;14.344;2023-05-02T05:01:55;99519.44;;;11.61;77.14
77112;BME280;66064;50.226;14.344;2023-05-02T05:04:22;99515.91;;;11.70;77.07
77112;BME280;66064;50.226;14.344;2023-05-02T05:06:48;99517.69;;;11.71;76.73
77112;BME280;66064;50.226;14.344;2023-05-02T05:09:15;99521.31;;;11.76;76.53
77112;BME280;66064;50.226;14.344;2023-05-02T05:11:41;99522.16;;;11.75;75.89
77112;BME280;66064;50.226;14.344;2023-05-02T05:14:11;99523.13;;;11.78;75.47
77112;BME280;66064;50.226;14.344;2023-05-02T05:16:37;99519.59;;;11.88;75.39
77112;BME280;66064;50.226;14.344;2023-05-02T05:19:03;99524.94;;;11.88;75.52
77112;BME280;66064;50.226;14.344;2023-05-02T05:21:29;99539.19;;;12.03;74.35
77112;BME280;66064;50.226;14.344;2023-05-02T05:23:56;99545.47;;;12.09;75.24
77112;BME280;66064;50.226;14.344;2023-05-02T05:26:21;99547.28;;;12.13;74.54
77112;BME280;66064;50.226;14.344;2023-05-02T05:28:49;99549.94;;;12.18;74.92
77112;BME280;66064;50.226;14.344;2023-05-02T05:31:15;99557.94;;;12.19;76.00
77112;BME280;66064;50.226;14.344;2023-05-02T05:33:42;99572.22;;;12.27;75.17
77112;BME280;66064;50.226;14.344;2023-05-02T05:36:09;99566.00;;;12.32;74.94
77112;BME280;66064;50.226;14.344;2023-05-02T05:38:36;99564.22;;;12.38;75.93
77112;BME280;66064;50.226;14.344;2023-05-02T05:41:03;99568.72;;;12.51;74.93
77112;BME280;66064;50.226;14.344;2023-05-02T05:43:30;99568.75;;;12.59;75.60
77112;BME280;66064;50.226;14.344;2023-05-02T05:45:56;99567.00;;;12.64;74.42
77112;BME280;66064;50.226;14.344;2023-05-02T05:48:22;99566.09;;;12.70;73.54
77112;BME280;66064;50.226;14.344;2023-05-02T05:50:48;99572.34;;;12.81;74.52
77112;BME280;66064;50.226;14.344;2023-05-02T05:53:15;99567.91;;;12.80;74.48
77112;BME280;66064;50.226;14.344;2023-05-02T05:55:40;99578.56;;;12.86;75.16
77112;BME280;66064;50.226;14.344;2023-05-02T05:58:07;99586.63;;;12.93;74.38
77112;BME280;66064;50.226;14.344;2023-05-02T06:00:34;99592.84;;;13.00;74.60
77112;BME280;66064;50.226;14.344;2023-05-02T06:03:00;99591.06;;;13.05;73.76
77112;BME280;66064;50.226;14.344;2023-05-02T06:05:26;99587.53;;;13.15;74.27
77112;BME280;66064;50.226;14.344;2023-05-02T06:07:52;99581.31;;;13.30;72.49
77112;BME280;66064;50.226;14.344;2023-05-02T06:10:18;99592.00;;;13.39;71.37
77112;BME280;66064;50.226;14.344;2023-05-02T06:12:45;99595.53;;;13.69;71.21
77112;BME280;66064;50.226;14.344;2023-05-02T06:15:10;99600.91;;;13.47;72.75
77112;BME280;66064;50.226;14.344;2023-05-02T06:17:36;99609.78;;;13.78;72.52
77112;BME280;66064;50.226;14.344;2023-05-02T06:20:02;99608.88;;;13.85;72.10
77112;BME280;66064;50.226;14.344;2023-05-02T06:22:29;99609.75;;;13.93;71.32
77112;BME280;66064;50.226;14.344;2023-05-02T06:24:55;99611.50;;;14.04;68.55
77112;BME280;66064;50.226;14.344;2023-05-02T06:27:21;99614.09;;;14.40;69.25
77112;BME280;66064;50.226;14.344;2023-05-02T06:29:49;99604.94;;;14.78;65.79
77112;BME280;66064;50.226;14.344;2023-05-02T06:32:16;99608.25;;;15.21;66.68
77112;BME280;66064;50.226;14.344;2023-05-02T06:34:41;99600.69;;;15.71;63.66
77112;BME280;66064;50.226;14.344;2023-05-02T06:37:08;99611.59;;;16.36;61.75
77112;BME280;66064;50.226;14.344;2023-05-02T06:39:33;99610.78;;;16.98;59.42
77112;BME280;66064;50.226;14.344;2023-05-02T06:41:59;99619.06;;;16.82;58.86
77112;BME280;66064;50.226;14.344;2023-05-02T06:44:26;99611.88;;;16.12;60.99
77112;BME280;66064;50.226;14.344;2023-05-02T06:46:52;99619.94;;;16.08;61.47
77112;BME280;66064;50.226;14.344;2023-05-02T06:49:18;99628.25;;;15.86;59.46
77112;BME280;66064;50.226;14.344;2023-05-02T06:51:44;99625.81;;;15.60;60.78
77112;BME280;66064;50.226;14.344;2023-05-02T06:54:09;99632.25;;;15.33;62.06
77112;BME280;66064;50.226;14.344;2023-05-02T06:56:36;99644.75;;;15.40;61.84
77112;BME280;66064;50.226;14.344;2023-05-02T06:59:01;99645.66;;;15.34;63.51
77112;BME280;66064;50.226;14.344;2023-05-02T07:01:28;99645.88;;;15.07;63.89
77112;BME280;66064;50.226;14.344;2023-05-02T07:03:53;99642.84;;;15.57;61.58
77112;BME280;66064;50.226;14.344;2023-05-02T07:06:19;99641.63;;;15.90;61.56
77112;BME280;66064;50.226;14.344;2023-05-02T07:08:46;99633.59;;;15.89;59.94
77112;BME280;66064;50.226;14.344;2023-05-02T07:11:12;99643.34;;;15.97;61.20
77112;BME280;66064;50.226;14.344;2023-05-02T07:13:38;99641.75;;;16.56;57.50
77112;BME280;66064;50.226;14.344;2023-05-02T07:16:04;99638.66;;;16.90;58.57
77112;BME280;66064;50.226;14.344;2023-05-02T07:18:30;99646.16;;;17.29;54.92
77112;BME280;66064;50.226;14.344;2023-05-02T07:20:56;99651.03;;;17.03;55.61
77112;BME280;66064;50.226;14.344;2023-05-02T07:23:22;99641.75;;;17.22;54.24
77112;BME280;66064;50.226;14.344;2023-05-02T07:25:48;99650.16;;;17.58;53.42
77112;BME280;66064;50.226;14.344;2023-05-02T07:28:14;99654.13;;;16.72;54.74
77112;BME280;66064;50.226;14.344;2023-05-02T07:30:40;99654.25;;;16.60;55.90
77112;BME280;66064;50.226;14.344;2023-05-02T07:33:07;99653.53;;;16.46;55.41
77112;BME280;66064;50.226;14.344;2023-05-02T07:35:33;99656.00;;;16.69;54.96
77112;BME280;66064;50.226;14.344;2023-05-02T07:37:59;99656.09;;;17.23;54.72
77112;BME280;66064;50.226;14.344;2023-05-02T07:40:25;99654.16;;;17.88;53.62
77112;BME280;66064;50.226;14.344;2023-05-02T07:42:52;99648.56;;;18.46;50.81
77112;BME280;66064;50.226;14.344;2023-05-02T07:45:19;99644.72;;;18.58;47.73
77112;BME280;66064;50.226;14.344;2023-05-02T07:47:45;99651.25;;;19.31;49.20
77112;BME280;66064;50.226;14.344;2023-05-02T07:50:11;99646.69;;;19.70;46.46
77112;BME280;66064;50.226;14.344;2023-05-02T07:52:37;99649.53;;;19.27;49.04
77112;BME280;66064;50.226;14.344;2023-05-02T07:55:04;99660.91;;;19.39;46.44
77112;BME280;66064;50.226;14.344;2023-05-02T07:57:30;99657.47;;;20.05;47.56
77112;BME280;66064;50.226;14.344;2023-05-02T07:59:56;99664.97;;;19.20;48.84
77112;BME280;66064;50.226;14.344;2023-05-02T08:02:22;99667.47;;;20.02;47.25
77112;BME280;66064;50.226;14.344;2023-05-02T08:04:48;99664.91;;;19.62;47.88
77112;BME280;66064;50.226;14.344;2023-05-02T08:07:15;99669.97;;;20.09;47.62
77112;BME280;66064;50.226;14.344;2023-05-02T08:09:41;99668.78;;;21.43;44.72
77112;BME280;66064;50.226;14.344;2023-05-02T08:12:07;99671.03;;;21.85;43.50
77112;BME280;66064;50.226;14.344;2023-05-02T08:14:33;99674.19;;;21.14;45.04
77112;BME280;66064;50.226;14.344;2023-05-02T08:16:59;99672.84;;;22.37;42.46
77112;BME280;66064;50.226;14.344;2023-05-02T08:19:26;99680.63;;;23.41;37.69
77112;BME280;66064;50.226;14.344;2023-05-02T08:21:53;99681.56;;;22.20;39.81
77112;BME280;66064;50.226;14.344;2023-05-02T08:24:19;99695.25;;;22.92;40.45
77112;BME280;66064;50.226;14.344;2023-05-02T08:26:45;99698.63;;;22.98;38.44
77112;BME280;66064;50.226;14.344;2023-05-02T08:29:11;99691.06;;;23.53;40.10
77112;BME280;66064;50.226;14.344;2023-05-02T08:31:39;99678.94;;;23.62;37.08
77112;BME280;66064;50.226;14.344;2023-05-02T08:34:05;99694.00;;;22.77;40.00
77112;BME280;66064;50.226;14.344;2023-05-02T08:36:31;99684.72;;;23.96;36.42
77112;BME280;66064;50.226;14.344;2023-05-02T08:38:57;99697.50;;;24.36;37.11
77112;BME280;66064;50.226;14.344;2023-05-02T08:41:24;99694.81;;;24.97;34.12
77112;BME280;66064;50.226;14.344;2023-05-02T08:43:51;99704.53;;;23.33;38.11
77112;BME280;66064;50.226;14.344;2023-05-02T08:46:21;99707.09;;;23.59;38.33
77112;BME280;66064;50.226;14.344;2023-05-02T08:48:48;99694.41;;;25.44;34.64
77112;BME280;66064;50.226;14.344;2023-05-02T08:51:19;99695.47;;;25.21;34.53
77112;BME280;66064;50.226;14.344;2023-05-02T08:54:02;99717.75;;;23.19;38.16
77112;BME280;66064;50.226;14.344;2023-05-02T08:56:29;99715.75;;;24.55;34.87
77112;BME280;66064;50.226;14.344;2023-05-02T08:58:55;99718.63;;;24.31;36.71
77112;BME280;66064;50.226;14.344;2023-05-02T09:01:23;99722.94;;;25.17;33.67
77112;BME280;66064;50.226;14.344;2023-05-02T09:03:52;99723.63;;;25.40;34.62
77112;BME280;66064;50.226;14.344;2023-05-02T09:06:21;99721.09;;;26.11;32.62
77112;BME280;66064;50.226;14.344;2023-05-02T09:08:49;99730.72;;;23.57;36.81
77112;BME280;66064;50.226;14.344;2023-05-02T09:11:15;99728.78;;;25.47;33.83
77112;BME280;66064;50.226;14.344;2023-05-02T09:13:49;99726.00;;;25.48;33.63
77112;BME280;66064;50.226;14.344;2023-05-02T09:16:21;99730.66;;;26.01;33.50
77112;BME280;66064;50.226;14.344;2023-05-02T09:18:49;99747.06;;;25.44;33.36
77112;BME280;66064;50.226;14.344;2023-05-02T09:21:34;99746.25;;;25.03;34.44
77112;BME280;66064;50.226;14.344;2023-05-02T09:24:19;99747.13;;;23.99;35.46
77112;BME280;66064;50.226;14.344;2023-05-02T09:27:01;99749.16;;;24.16;34.24
77112;BME280;66064;50.226;14.344;2023-05-02T09:29:29;99751.69;;;23.99;34.42
77112;BME280;66064;50.226;14.344;2023-05-02T09:32:04;99749.97;;;23.28;37.47
77112;BME280;66064;50.226;14.344;2023-05-02T09:34:30;99744.13;;;24.49;33.47
77112;BME280;66064;50.226;14.344;2023-05-02T09:36:56;99751.22;;;24.94;34.06
77112;BME280;66064;50.226;14.344;2023-05-02T09:39:25;99742.16;;;25.51;33.15
77112;BME280;66064;50.226;14.344;2023-05-02T09:41:54;99751.78;;;24.39;36.09
77112;BME280;66064;50.226;14.344;2023-05-02T09:44:22;99751.56;;;24.66;35.65
77112;BME280;66064;50.226;14.344;2023-05-02T09:46:51;99757.88;;;24.66;35.74
77112;BME280;66064;50.226;14.344;2023-05-02T09:49:18;99756.84;;;24.69;35.41
77112;BME280;66064;50.226;14.344;2023-05-02T09:51:46;99756.41;;;24.37;36.28
77112;BME280;66064;50.226;14.344;2023-05-02T09:54:34;99751.63;;;25.82;34.77
77112;BME280;66064;50.226;14.344;2023-05-02T09:57:03;99763.84;;;24.96;35.15
77112;BME280;66064;50.226;14.344;2023-05-02T09:59:32;99764.72;;;24.34;37.00
77112;BME280;66064;50.226;14.344;2023-05-02T10:02:03;99777.59;;;23.16;38.47
77112;BME280;66064;50.226;14.344;2023-05-02T10:04:32;99759.50;;;24.91;35.41
77112;BME280;66064;50.226;14.344;2023-05-02T10:06:59;99768.81;;;24.45;35.10
77112;BME280;66064;50.226;14.344;2023-05-02T10:09:29;99765.44;;;25.00;34.38
77112;BME280;66064;50.226;14.344;2023-05-02T10:12:00;99767.88;;;25.27;35.92
77112;BME280;66064;50.226;14.344;2023-05-02T10:14:30;99767.69;;;25.11;34.30
77112;BME280;66064;50.226;14.344;2023-05-02T10:17:04;99777.75;;;25.09;35.05
77112;BME280;66064;50.226;14.344;2023-05-02T10:19:38;99776.22;;;25.61;34.14
77112;BME280;66064;50.226;14.344;2023-05-02T10:22:07;99777.91;;;25.45;34.05
77112;BME280;66064;50.226;14.344;2023-05-02T10:24:34;99773.19;;;26.05;32.57
77112;BME280;66064;50.226;14.344;2023-05-02T10:27:03;99771.63;;;26.18;30.93
77112;BME280;66064;50.226;14.344;2023-05-02T10:29:30;99779.16;;;25.18;33.62
77112;BME280;66064;50.226;14.344;2023-05-02T10:31:57;99770.63;;;26.02;33.55
77112;BME280;66064;50.226;14.344;2023-05-02T10:34:24;99779.91;;;26.70;33.45
77112;BME280;66064;50.226;14.344;2023-05-02T10:36:50;99786.91;;;27.27;31.89
77112;BME280;66064;50.226;14.344;2023-05-02T10:39:16;99791.34;;;24.26;36.11
77112;BME280;66064;50.226;14.344;2023-05-02T10:41:44;99793.53;;;24.17;37.47
77112;BME280;66064;50.226;14.344;2023-05-02T10:44:11;99781.19;;;24.08;33.73
77112;BME280;66064;50.226;14.344;2023-05-02T10:46:38;99795.09;;;23.55;35.27
77112;BME280;66064;50.226;14.344;2023-05-02T10:49:10;99792.50;;;22.53;38.20
77112;BME280;66064;50.226;14.344;2023-05-02T10:51:40;99795.00;;;23.10;37.41
77112;BME280;66064;50.226;14.344;2023-05-02T10:57:05;99793.47;;;23.96;36.13
77112;BME280;66064;50.226;14.344;2023-05-02T10:59:39;99788.84;;;25.25;33.73
77112;BME280;66064;50.226;14.344;2023-05-02T11:05:06;99793.47;;;26.71;31.17
77112;BME280;66064;50.226;14.344;2023-05-02T11:07:34;99786.13;;;27.08;29.60
77112;BME280;66064;50.226;14.344;2023-05-02T11:12:49;99792.59;;;26.88;29.81
77112;BME280;66064;50.226;14.344;2023-05-02T11:18:07;99793.72;;;27.18;29.86
77112;BME280;66064;50.226;14.344;2023-05-02T11:20:35;99783.47;;;25.81;30.47
77112;BME280;66064;50.226;14.344;2023-05-02T11:25:58;99784.34;;;25.82;32.47
77112;BME280;66064;50.226;14.344;2023-05-02T11:31:04;99786.94;;;27.43;27.04
77112;BME280;66064;50.226;14.344;2023-05-02T11:33:30;99789.91;;;27.38;29.84
77112;BME280;66064;50.226;14.344;2023-05-02T11:35:57;99783.34;;;28.98;27.51
77112;BME280;66064;50.226;14.344;2023-05-02T11:38:24;99789.66;;;28.54;25.64
77112;BME280;66064;50.226;14.344;2023-05-02T11:40:58;99794.81;;;25.91;29.96
77112;BME280;66064;50.226;14.344;2023-05-02T11:43:26;99796.38;;;25.96;30.02
77112;BME280;66064;50.226;14.344;2023-05-02T11:45:53;99798.69;;;26.59;29.75
77112;BME280;66064;50.226;14.344;2023-05-02T11:48:21;99803.19;;;24.67;31.25
77112;BME280;66064;50.226;14.344;2023-05-02T11:50:53;99806.91;;;23.78;34.06
77112;BME280;66064;50.226;14.344;2023-05-02T11:53:24;99810.50;;;22.29;35.01
77112;BME280;66064;50.226;14.344;2023-05-02T11:55:56;99816.66;;;21.77;37.65
77112;BME280;66064;50.226;14.344;2023-05-02T11:58:24;99816.78;;;21.74;39.03
77112;BME280;66064;50.226;14.344;2023-05-02T12:00:52;99818.38;;;20.88;39.05
77112;BME280;66064;50.226;14.344;2023-05-02T12:03:19;99811.38;;;21.12;39.07
77112;BME280;66064;50.226;14.344;2023-05-02T12:05:46;99813.50;;;21.01;39.49
77112;BME280;66064;50.226;14.344;2023-05-02T12:08:39;99826.94;;;21.36;39.26
77112;BME280;66064;50.226;14.344;2023-05-02T12:11:05;99826.00;;;21.37;39.93
77112;BME280;66064;50.226;14.344;2023-05-02T12:13:31;99822.31;;;21.98;38.63
77112;BME280;66064;50.226;14.344;2023-05-02T12:15:58;99826.38;;;21.84;38.88
77112;BME280;66064;50.226;14.344;2023-05-02T12:18:25;99826.03;;;22.24;38.20
77112;BME280;66064;50.226;14.344;2023-05-02T12:20:53;99819.69;;;22.78;37.10
77112;BME280;66064;50.226;14.344;2023-05-02T12:23:20;99820.56;;;23.53;36.07
77112;BME280;66064;50.226;14.344;2023-05-02T12:25:47;99824.78;;;23.12;36.32
77112;BME280;66064;50.226;14.344;2023-05-02T12:28:15;99830.56;;;23.52;35.90
77112;BME280;66064;50.226;14.344;2023-05-02T12:30:42;99828.84;;;23.48;36.41
77112;BME280;66064;50.226;14.344;2023-05-02T12:33:08;99838.44;;;22.85;36.13
77112;BME280;66064;50.226;14.344;2023-05-02T12:35:34;99833.09;;;22.82;37.01
77112;BME280;66064;50.226;14.344;2023-05-02T12:38:16;99845.53;;;21.78;39.98
77112;BME280;66064;50.226;14.344;2023-05-02T12:40:50;99847.53;;;21.73;40.52
77112;BME280;66064;50.226;14.344;2023-05-02T12:43:18;99836.94;;;22.22;39.10
77112;BME280;66064;50.226;14.344;2023-05-02T12:45:44;99840.28;;;22.30;39.80
77112;BME280;66064;50.226;14.344;2023-05-02T12:48:26;99836.72;;;22.28;38.28
77112;BME280;66064;50.226;14.344;2023-05-02T12:50:53;99852.00;;;22.03;39.45
77112;BME280;66064;50.226;14.344;2023-05-02T12:56:07;99854.09;;;22.76;37.89
77112;BME280;66064;50.226;14.344;2023-05-02T12:58:53;99849.25;;;22.32;38.71
77112;BME280;66064;50.226;14.344;2023-05-02T13:01:19;99856.28;;;21.19;40.87
77112;BME280;66064;50.226;14.344;2023-05-02T13:03:45;99853.25;;;21.62;39.79
77112;BME280;66064;50.226;14.344;2023-05-02T13:06:12;99855.16;;;21.27;40.20
77112;BME280;66064;50.226;14.344;2023-05-02T13:08:38;99859.03;;;21.17;41.17
77112;BME280;66064;50.226;14.344;2023-05-02T13:11:04;99859.63;;;22.46;39.66
77112;BME280;66064;50.226;14.344;2023-05-02T13:13:30;99860.91;;;21.77;39.79
77112;BME280;66064;50.226;14.344;2023-05-02T13:15:57;99869.50;;;21.62;39.82
77112;BME280;66064;50.226;14.344;2023-05-02T13:18:23;99874.78;;;21.67;40.15
77112;BME280;66064;50.226;14.344;2023-05-02T13:20:49;99867.94;;;21.53;40.61
77112;BME280;66064;50.226;14.344;2023-05-02T13:23:15;99867.06;;;21.22;40.73
77112;BME280;66064;50.226;14.344;2023-05-02T13:25:42;99873.69;;;21.10;42.14
77112;BME280;66064;50.226;14.344;2023-05-02T13:28:07;99866.81;;;20.97;40.37
77112;BME280;66064;50.226;14.344;2023-05-02T13:30:34;99865.06;;;20.94;40.36
77112;BME280;66064;50.226;14.344;2023-05-02T13:33:08;99867.34;;;20.77;40.67